TABS, Texas Automated Buoy System, NOAA HAZMAT, Ocean Observatory, Real Time Oceanographic Data Supporting Oil Spill Prevention and Response

Texas General Land Office  Texas General
 Land Office
 Oil Spill Prevention
 & Response
Texas Automated Buoy System
Real Time Ocean Observations
Supporting Oil Spill Prevention and Response since 1995
Geochemical and Environmental Research Group

TABS Buoy J -- Texas Automated Buoy System

TABS Buoy J Conditions at 07/30/2014 16:14 UTC (07/30/2014 11:14 CDT)
26° 11.4840'N   97° 3.0420'W
AA3900 DCS - sensor depth 2m
Anemometer height: 4m
Water Depth: 68 feet (20 meters)
Speed: 22.00 cm/s (0.43 kts) Direction: 6 °T (N) Water Temp: 18°C (64 °F)
System Voltage: 0.0 V Signal Strength: 0.0 dB Ping Count: 0
Wind: 1.3 m/s (2.5 kts)
          From 144°T (SE)
Air Temp: 25 °C (77 °F)
Relative Humidity:  N/A
Pressure: 1011.9 mb (29.88 inHg)

  


IMPORTANT: Notice to Mariners


Today's Meteorological Data (download)

   Date   |  Time  |  VEast   North    AirT  AtmPr     Gust   Comp   Tx   Ty    PAR   RelH
          |  (UTC) |  (m/s)|  (m/s)|   (°C)|  (mb) |  (m/s)|  (°M) |    |    |      |  (%) |
==========+========+=======+=======+=======+=======+=======+=======+====+====+======+======+
05/31/2014 00:00:00   -5.12    1.75    25.0 1009.27    6.47    81.4    4    0    0.0 -999.0
05/31/2014 00:30:00   -4.39    2.18    25.1 1009.51    6.63    83.6    4    0    0.0 -999.0
05/31/2014 01:00:00   -3.88    2.63    24.9 1009.56    6.22    87.0    4    0    0.0 -999.0
05/31/2014 01:30:00   -3.19    3.24    24.8 1009.68    5.70    95.2    4    0    0.0 -999.0
05/31/2014 02:00:00   -2.89    2.93    24.6 1009.65    5.38    96.3    3    0    0.0 -999.0
05/31/2014 02:30:00   -2.55    3.01    24.6 1009.80    5.09    96.8    3    0    0.0 -999.0
05/31/2014 03:00:00   -2.40    3.03    24.5 1010.21    4.91    98.9    3    0    0.0 -999.0
05/31/2014 03:30:00   -2.21    3.37    24.6 1010.62    5.34   107.9    3    0    0.0 -999.0
05/31/2014 04:00:00   -1.55    3.67    24.5 1011.01    5.05   113.7    3    0    0.0 -999.0
05/31/2014 04:30:00   -1.19    3.45    24.5 1011.20    4.73   112.4    3    0    0.0 -999.0
05/31/2014 05:00:00   -1.08    3.27    24.5 1011.39    4.60   115.0    3    0    0.0 -999.0
05/31/2014 05:30:00   -1.42    2.54    24.4 1011.35    3.64   109.6    2    0    0.0 -999.0
05/31/2014 06:00:00   -1.71    2.28    24.4 1011.28    3.59   106.9    2    0    0.0 -999.0
05/31/2014 06:30:00   -1.28    2.67    24.3 1011.09    3.66   114.1    2    0    0.0 -999.0
05/31/2014 07:00:00   -1.38    2.46    24.3 1011.10    3.48   111.3    2    0    0.0 -999.0
05/31/2014 07:30:00   -0.87    2.21    24.3 1011.10    3.05   113.8    2    0    0.0 -999.0
05/31/2014 08:00:00   -0.98    2.25    24.2 1010.99    3.09   121.2    2    0    0.0 -999.0
05/31/2014 08:30:00   -0.54    2.69    24.2 1010.83    3.38   127.3    2    0    0.0 -999.0
05/31/2014 09:00:00   -0.83    2.19    24.2 1010.94    2.88   123.3    2    0    0.0 -999.0
05/31/2014 09:30:00    0.76    3.21    24.1 1010.53    4.16   149.8    2    0    0.0 -999.0
05/31/2014 10:00:00    0.75    3.02    24.2 1010.45    4.08   159.0    2    0    0.0 -999.0
05/31/2014 10:30:00    0.46    2.82    24.2 1010.28    3.91   144.1    2    0    0.0 -999.0
05/31/2014 11:00:00    0.72    2.84    24.2 1010.35    3.70   149.1    2    0    0.0 -999.0
05/31/2014 11:30:00    0.25    2.27    24.1 1010.50    2.77   141.6    1    0    0.0 -999.0
05/31/2014 12:00:00    0.27    2.18    24.2 1010.36    3.31   134.0    1    0    0.0 -999.0
05/31/2014 12:30:00    0.06    2.09    24.4 1010.71    2.77   128.1    1    0    0.0 -999.0
05/31/2014 13:00:00   -0.11    1.33    24.6 1011.10    1.90    99.6    1    0    0.0 -999.0
05/31/2014 13:30:00   -0.38    1.44    24.8 1011.27    1.93    98.4    1    0    0.0 -999.0
05/31/2014 14:00:00    0.18    1.01    24.7 1011.54    1.69    93.8    1    0    0.0 -999.0
05/31/2014 14:30:00   -0.56    1.23    24.9 1011.76    1.76    82.6    1    0    0.0 -999.0
05/31/2014 15:00:00   -0.15    1.17    24.8 1011.73    1.67    84.2    1    0    0.0 -999.0
05/31/2014 15:30:00   -0.77    1.05    24.9 1011.87    1.81    75.8    2    0    0.0 -999.0